createdAt,value
2019-05-16T00:00:58.602Z,0.00
2019-05-16T00:01:55.834Z,0.00
2019-05-16T00:02:55.829Z,0.00
2019-05-16T00:03:57.868Z,0.00
2019-05-16T00:04:55.830Z,0.00
2019-05-16T00:05:58.257Z,0.00
2019-05-16T00:06:55.778Z,0.00
2019-05-16T00:07:58.688Z,0.00
2019-05-16T00:08:55.753Z,0.00
2019-05-16T00:09:55.775Z,0.00
2019-05-16T00:10:57.957Z,0.00
2019-05-16T00:11:58.008Z,0.00
2019-05-16T00:12:55.712Z,0.00
2019-05-16T00:13:57.756Z,0.00
2019-05-16T00:14:58.072Z,0.00
2019-05-16T00:15:55.677Z,0.00
2019-05-16T00:16:55.670Z,0.00
2019-05-16T00:17:58.046Z,0.00
2019-05-16T00:18:55.648Z,0.00
2019-05-16T00:19:55.670Z,0.00
2019-05-16T00:20:55.622Z,0.00
2019-05-16T00:21:55.609Z,0.00
2019-05-16T00:22:55.607Z,0.00
2019-05-16T00:23:55.601Z,0.00
2019-05-16T00:24:57.666Z,0.00
2019-05-16T00:25:55.572Z,0.00
2019-05-16T00:26:57.924Z,0.00
2019-05-16T00:27:55.545Z,0.00
2019-05-16T00:28:55.538Z,0.00
2019-05-16T00:29:57.977Z,0.00
2019-05-16T00:30:55.530Z,0.00
2019-05-16T00:31:55.502Z,0.00
2019-05-16T00:32:55.496Z,0.00
2019-05-16T00:33:57.783Z,0.00
2019-05-16T00:34:55.503Z,0.00
2019-05-16T00:36:02.553Z,0.00
2019-05-16T00:36:58.204Z,0.00
2019-05-16T00:37:55.438Z,0.00
2019-05-16T00:38:57.715Z,0.00
2019-05-16T00:39:55.443Z,0.00
2019-05-16T00:40:55.407Z,0.00
2019-05-16T00:41:55.403Z,0.00
2019-05-16T00:42:55.422Z,0.00
2019-05-16T00:43:57.624Z,0.00
2019-05-16T00:44:55.391Z,0.00
2019-05-16T00:45:55.363Z,0.00
2019-05-16T00:46:55.350Z,0.00
2019-05-16T00:47:55.334Z,0.00
2019-05-16T00:48:55.318Z,0.00
2019-05-16T00:49:55.340Z,0.00
2019-05-16T00:50:55.298Z,0.00
2019-05-16T00:51:55.291Z,0.00
2019-05-16T00:52:55.282Z,0.00
2019-05-16T00:53:55.275Z,0.00
2019-05-16T00:54:55.282Z,0.00
2019-05-16T00:55:55.248Z,0.00
2019-05-16T00:56:57.699Z,0.00
2019-05-16T00:57:55.229Z,0.00
2019-05-16T00:58:55.213Z,0.00
2019-05-16T00:59:55.249Z,0.00
2019-05-16T01:00:55.197Z,0.00
2019-05-16T01:01:55.179Z,0.00
2019-05-16T01:02:55.174Z,0.00
2019-05-16T01:03:55.163Z,0.00
2019-05-16T01:04:55.179Z,0.00
2019-05-16T01:05:55.149Z,0.00
2019-05-16T01:06:55.126Z,0.00
2019-05-16T01:07:55.118Z,0.00
2019-05-16T01:08:55.109Z,0.00
2019-05-16T01:09:55.103Z,0.00
2019-05-16T01:10:55.115Z,0.00
2019-05-16T01:11:55.080Z,0.00
2019-05-16T01:12:55.067Z,0.00
2019-05-16T01:13:55.057Z,0.00
2019-05-16T01:14:55.042Z,0.00
2019-05-16T01:15:55.059Z,0.00
2019-05-16T01:16:55.025Z,0.00
2019-05-16T01:17:55.017Z,0.00
2019-05-16T01:18:55.003Z,0.00
2019-05-16T01:19:54.997Z,0.00
2019-05-16T01:20:55.005Z,0.00
2019-05-16T01:21:54.966Z,0.00
2019-05-16T01:22:54.958Z,0.00
2019-05-16T01:23:54.948Z,0.00
2019-05-16T01:24:54.939Z,0.00
2019-05-16T01:25:54.954Z,0.00
2019-05-16T01:26:54.914Z,0.00
2019-05-16T01:27:54.906Z,0.00
2019-05-16T01:28:54.896Z,0.00
2019-05-16T01:29:54.885Z,0.00
2019-05-16T01:30:54.902Z,0.00
2019-05-16T01:31:54.867Z,0.00
2019-05-16T01:32:54.850Z,0.00
2019-05-16T01:33:54.839Z,0.00
2019-05-16T01:34:54.845Z,0.00
2019-05-16T01:35:54.841Z,0.00
2019-05-16T01:36:54.813Z,0.00
2019-05-16T01:37:54.802Z,0.00
2019-05-16T01:38:54.786Z,0.00
2019-05-16T01:39:54.778Z,0.00
2019-05-16T01:40:54.790Z,0.00
2019-05-16T01:41:54.754Z,0.00
2019-05-16T01:42:54.748Z,0.00
2019-05-16T01:43:54.732Z,0.00
2019-05-16T01:44:54.731Z,0.00
2019-05-16T01:45:54.734Z,0.00
2019-05-16T01:46:54.706Z,0.00
2019-05-16T01:47:54.690Z,0.00
2019-05-16T01:48:54.687Z,0.00
2019-05-16T01:49:54.666Z,0.00
2019-05-16T01:50:54.702Z,0.00
2019-05-16T01:51:54.659Z,0.00
2019-05-16T01:52:54.635Z,0.00
2019-05-16T01:53:54.626Z,0.00
2019-05-16T01:54:54.620Z,0.00
2019-05-16T01:55:54.910Z,0.00
2019-05-16T01:56:54.595Z,0.00
2019-05-16T01:57:54.582Z,0.00
2019-05-16T01:58:54.570Z,0.00
2019-05-16T01:59:54.569Z,0.00
2019-05-16T02:01:11.190Z,0.00
2019-05-16T02:02:00.173Z,0.00
2019-05-16T02:02:57.824Z,0.00
2019-05-16T02:03:54.523Z,0.00
2019-05-16T02:04:54.510Z,0.00
2019-05-16T02:05:54.504Z,0.00
2019-05-16T02:06:55.002Z,0.00
2019-05-16T02:07:54.474Z,0.00
2019-05-16T02:08:54.467Z,0.00
2019-05-16T02:09:54.458Z,0.00
2019-05-16T02:10:54.444Z,0.00
2019-05-16T02:11:54.480Z,0.00
2019-05-16T02:12:54.425Z,0.00
2019-05-16T02:13:54.413Z,0.00
2019-05-16T02:14:54.406Z,0.00
2019-05-16T02:15:54.395Z,0.00
2019-05-16T02:16:54.407Z,0.00
2019-05-16T02:17:54.373Z,0.00
2019-05-16T02:18:54.360Z,0.00
2019-05-16T02:19:54.346Z,0.00
2019-05-16T02:20:54.344Z,0.00
2019-05-16T02:21:54.381Z,0.00
2019-05-16T02:22:54.320Z,0.00
2019-05-16T02:23:54.299Z,0.00
2019-05-16T02:24:54.297Z,0.00
2019-05-16T02:25:54.283Z,0.00
2019-05-16T02:26:54.275Z,0.00
2019-05-16T02:27:54.291Z,0.00
2019-05-16T02:28:54.254Z,0.00
2019-05-16T02:29:54.252Z,0.00
2019-05-16T02:30:54.229Z,0.00
2019-05-16T02:31:54.223Z,0.00
2019-05-16T02:32:54.238Z,0.00
2019-05-16T02:33:54.200Z,0.00
2019-05-16T02:34:54.192Z,0.00
2019-05-16T02:35:55.595Z,0.00
2019-05-16T02:37:14.594Z,0.00
2019-05-16T02:37:55.563Z,0.00
2019-05-16T02:38:55.477Z,0.00
2019-05-16T02:39:54.474Z,0.00
2019-05-16T02:40:55.242Z,0.00
2019-05-16T02:41:54.114Z,0.00
2019-05-16T02:42:56.180Z,0.00
2019-05-16T02:43:54.117Z,0.00
2019-05-16T02:44:54.091Z,0.00
2019-05-16T02:45:54.079Z,0.00
2019-05-16T02:46:54.062Z,0.00
2019-05-16T02:47:54.079Z,0.00
2019-05-16T02:48:54.039Z,0.00
2019-05-16T02:49:54.042Z,0.00
2019-05-16T02:50:54.015Z,0.00
2019-05-16T02:51:54.010Z,0.00
2019-05-16T02:52:54.048Z,0.00
2019-05-16T02:53:53.985Z,0.00
2019-05-16T02:54:53.976Z,0.00
2019-05-16T02:55:53.967Z,4.00
2019-05-16T02:56:53.974Z,4.00
2019-05-16T02:57:54.005Z,4.00
2019-05-16T02:58:53.945Z,0.00
2019-05-16T02:59:53.923Z,4.00
2019-05-16T03:00:53.921Z,4.00
2019-05-16T03:01:53.907Z,4.00
2019-05-16T03:02:53.935Z,4.00
2019-05-16T03:03:53.902Z,8.00
2019-05-16T03:04:53.870Z,8.00
2019-05-16T03:05:53.854Z,8.00
2019-05-16T03:06:53.851Z,12.00
2019-05-16T03:07:53.841Z,12.00
2019-05-16T03:08:53.859Z,12.00
2019-05-16T03:09:53.829Z,16.00
2019-05-16T03:10:53.807Z,16.00
2019-05-16T03:11:53.807Z,16.00
2019-05-16T03:12:53.793Z,16.00
2019-05-16T03:13:53.803Z,20.00
2019-05-16T03:14:54.659Z,20.00
2019-05-16T03:15:53.752Z,24.00
2019-05-16T03:16:53.739Z,28.00
2019-05-16T03:17:53.731Z,28.00
2019-05-16T03:18:53.749Z,36.00
2019-05-16T03:19:53.710Z,40.00
2019-05-16T03:20:53.700Z,44.00
2019-05-16T03:21:53.694Z,48.00
2019-05-16T03:22:53.675Z,52.00
2019-05-16T03:23:53.710Z,60.00
2019-05-16T03:24:53.656Z,68.00
2019-05-16T03:25:53.644Z,76.00
2019-05-16T03:26:53.634Z,80.00
2019-05-16T03:27:53.629Z,84.00
2019-05-16T03:28:53.621Z,88.00
2019-05-16T03:29:53.629Z,92.00
2019-05-16T03:30:54.868Z,96.00
2019-05-16T03:31:54.801Z,100.00
2019-05-16T03:32:54.992Z,104.00
2019-05-16T03:33:59.782Z,112.00
2019-05-16T03:34:55.369Z,124.00
2019-05-16T03:35:55.351Z,132.00
2019-05-16T03:36:54.586Z,148.00
2019-05-16T03:37:59.628Z,160.00
2019-05-16T03:38:54.509Z,180.00
2019-05-16T03:39:53.521Z,192.00
2019-05-16T03:40:53.483Z,208.00
2019-05-16T03:41:53.478Z,220.00
2019-05-16T03:42:53.491Z,236.00
2019-05-16T03:43:53.452Z,256.00
2019-05-16T03:44:53.470Z,272.00
2019-05-16T03:45:53.434Z,288.00
2019-05-16T03:46:53.424Z,300.00
2019-05-16T03:47:53.413Z,320.00
2019-05-16T03:48:53.406Z,340.00
2019-05-16T03:49:53.428Z,360.00
2019-05-16T03:50:53.381Z,376.00
2019-05-16T03:51:53.374Z,396.00
2019-05-16T03:52:53.361Z,408.00
2019-05-16T03:53:53.349Z,416.00
2019-05-16T03:54:53.341Z,428.00
2019-05-16T03:55:53.363Z,436.00
2019-05-16T03:56:53.319Z,452.00
2019-05-16T03:57:53.310Z,484.00
2019-05-16T03:58:53.293Z,512.00
2019-05-16T03:59:53.283Z,548.00
2019-05-16T04:00:54.855Z,580.00
2019-05-16T04:01:53.276Z,608.00
2019-05-16T04:02:53.260Z,632.00
2019-05-16T04:03:53.240Z,652.00
2019-05-16T04:04:53.227Z,672.00
2019-05-16T04:05:53.258Z,696.00
2019-05-16T04:06:53.207Z,724.00
2019-05-16T04:08:09.979Z,752.00
2019-05-16T04:08:54.183Z,800.00
2019-05-16T04:09:53.174Z,880.00
2019-05-16T04:10:53.216Z,988.00
2019-05-16T04:11:53.159Z,1116.00
2019-05-16T04:12:53.142Z,1248.00
2019-05-16T04:13:53.132Z,1380.00
2019-05-16T04:14:53.120Z,1496.00
2019-05-16T04:15:53.261Z,1580.00
2019-05-16T04:16:53.105Z,1632.00
2019-05-16T04:17:53.093Z,1652.00
2019-05-16T04:18:53.085Z,1648.00
2019-05-16T04:19:53.071Z,1644.00
2019-05-16T04:20:53.151Z,1644.00
2019-05-16T04:21:53.052Z,1672.00
2019-05-16T04:22:53.028Z,1732.00
2019-05-16T04:23:53.036Z,1828.00
2019-05-16T04:24:53.023Z,1960.00
2019-05-16T04:25:53.206Z,2140.00
2019-05-16T04:26:52.995Z,2348.00
2019-05-16T04:27:52.983Z,2572.00
2019-05-16T04:28:52.975Z,2852.00
2019-05-16T04:29:52.963Z,3232.00
2019-05-16T04:30:52.977Z,3668.00
2019-05-16T04:31:52.943Z,4128.00
2019-05-16T04:32:52.930Z,4588.00
2019-05-16T04:33:52.920Z,5016.00
2019-05-16T04:34:52.914Z,5400.00
2019-05-16T04:35:53.344Z,5760.00
2019-05-16T04:36:52.886Z,6052.00
2019-05-16T04:37:52.875Z,6356.00
2019-05-16T04:38:52.864Z,6680.00
2019-05-16T04:39:52.871Z,6972.00
2019-05-16T04:40:52.877Z,7144.00
2019-05-16T04:41:52.843Z,7180.00
2019-05-16T04:42:52.830Z,7084.00
2019-05-16T04:43:52.811Z,6884.00
2019-05-16T04:44:52.801Z,6616.00
2019-05-16T04:45:53.103Z,6300.00
2019-05-16T04:46:52.789Z,6000.00
2019-05-16T04:47:52.777Z,5752.00
2019-05-16T04:48:52.769Z,5564.00
2019-05-16T04:49:52.746Z,5440.00
2019-05-16T04:50:52.963Z,5296.00
2019-05-16T04:51:52.763Z,5160.00
2019-05-16T04:52:52.716Z,5044.00
2019-05-16T04:53:52.703Z,4916.00
2019-05-16T04:54:52.708Z,4792.00
2019-05-16T04:55:52.682Z,4676.00
2019-05-16T04:56:52.704Z,4572.00
2019-05-16T04:57:52.666Z,4448.00
2019-05-16T04:58:52.653Z,4284.00
2019-05-16T04:59:52.651Z,4112.00
2019-05-16T05:00:52.739Z,3964.00
2019-05-16T05:01:52.644Z,3840.00
2019-05-16T05:02:52.613Z,3752.00
2019-05-16T05:04:06.321Z,3680.00
2019-05-16T05:04:53.589Z,3628.00
2019-05-16T05:05:52.577Z,3616.00
2019-05-16T05:06:55.660Z,3628.00
2019-05-16T05:07:52.554Z,3660.00
2019-05-16T05:08:58.621Z,3688.00
2019-05-16T05:09:53.533Z,3732.00
2019-05-16T05:10:52.527Z,3800.00
2019-05-16T05:11:52.540Z,3864.00
2019-05-16T05:12:52.497Z,3936.00
2019-05-16T05:13:52.495Z,4032.00
2019-05-16T05:14:52.485Z,4152.00
2019-05-16T05:15:52.468Z,4268.00
2019-05-16T05:16:52.489Z,4368.00
2019-05-16T05:17:52.451Z,4544.00
2019-05-16T05:18:52.435Z,4780.00
2019-05-16T05:19:52.427Z,5028.00
2019-05-16T05:20:52.971Z,5264.00
2019-05-16T05:21:52.432Z,5492.00
2019-05-16T05:22:52.394Z,5712.00
2019-05-16T05:23:52.389Z,5936.00
2019-05-16T05:24:52.370Z,6136.00
2019-05-16T05:25:52.362Z,6276.00
2019-05-16T05:26:52.380Z,6276.00
2019-05-16T05:27:52.340Z,6164.00
2019-05-16T05:28:52.346Z,5952.00
2019-05-16T05:29:52.324Z,5756.00
2019-05-16T05:30:52.311Z,5592.00
2019-05-16T05:31:55.151Z,5416.00
2019-05-16T05:32:52.296Z,5152.00
2019-05-16T05:33:52.276Z,4888.00
2019-05-16T05:34:52.276Z,4616.00
2019-05-16T05:35:52.253Z,4376.00
2019-05-16T05:36:52.270Z,4132.00
2019-05-16T05:37:52.236Z,3928.00
2019-05-16T05:39:07.525Z,3784.00
2019-05-16T05:39:53.212Z,3744.00
2019-05-16T05:40:52.206Z,3836.00
2019-05-16T05:41:52.216Z,3988.00
2019-05-16T05:42:52.178Z,4240.00
2019-05-16T05:43:54.528Z,4676.00
2019-05-16T05:44:52.160Z,5260.00
2019-05-16T05:45:52.151Z,5764.00
2019-05-16T05:46:52.185Z,6036.00
2019-05-16T05:47:52.125Z,5944.00
2019-05-16T05:48:52.117Z,5756.00
2019-05-16T05:49:52.120Z,5908.00
2019-05-16T05:50:52.091Z,6564.00
2019-05-16T05:51:52.077Z,7504.00
2019-05-16T05:52:52.098Z,8364.00
2019-05-16T05:53:52.051Z,8896.00
2019-05-16T05:54:52.058Z,9280.00
2019-05-16T05:55:52.042Z,9600.00
2019-05-16T05:56:52.030Z,9632.00
2019-05-16T05:57:52.050Z,9556.00
2019-05-16T05:58:52.006Z,9872.00
2019-05-16T05:59:52.002Z,10592.00
2019-05-16T06:00:52.526Z,11496.00
2019-05-16T06:01:52.071Z,12276.00
2019-05-16T06:02:52.018Z,12868.00
2019-05-16T06:03:51.954Z,13472.00
2019-05-16T06:04:51.948Z,14180.00
2019-05-16T06:05:51.936Z,14996.00
2019-05-16T06:06:51.924Z,16124.00
2019-05-16T06:07:51.942Z,17312.00
2019-05-16T06:08:51.909Z,17824.00
2019-05-16T06:09:56.225Z,17664.00
2019-05-16T06:10:51.891Z,17120.00
2019-05-16T06:11:51.886Z,16196.00
2019-05-16T06:12:51.888Z,15556.00
2019-05-16T06:13:51.852Z,15192.00
2019-05-16T06:14:51.848Z,15136.00
2019-05-16T06:15:51.826Z,15160.00
2019-05-16T06:16:51.818Z,14800.00
2019-05-16T06:17:51.835Z,14084.00
2019-05-16T06:18:51.797Z,13680.00
2019-05-16T06:19:51.790Z,14240.00
2019-05-16T06:20:51.788Z,15432.00
2019-05-16T06:21:51.768Z,15952.00
2019-05-16T06:22:51.827Z,15568.00
2019-05-16T06:23:51.856Z,15472.00
2019-05-16T06:24:51.748Z,15656.00
2019-05-16T06:25:51.741Z,16168.00
2019-05-16T06:26:51.823Z,17568.00
2019-05-16T06:27:51.766Z,19264.00
2019-05-16T06:28:51.699Z,20256.00
2019-05-16T06:29:51.680Z,21216.00
2019-05-16T06:30:52.168Z,21696.00
2019-05-16T06:31:51.658Z,21472.00
2019-05-16T06:32:51.665Z,21888.00
2019-05-16T06:33:51.639Z,22048.00
2019-05-16T06:34:51.627Z,21088.00
2019-05-16T06:35:51.757Z,20224.00
2019-05-16T06:36:51.605Z,19904.00
2019-05-16T06:37:51.618Z,20128.00
2019-05-16T06:38:51.581Z,20928.00
2019-05-16T06:39:51.568Z,21152.00
2019-05-16T06:40:52.539Z,20448.00
2019-05-16T06:41:51.547Z,19648.00
2019-05-16T06:42:51.563Z,19232.00
2019-05-16T06:43:51.528Z,19296.00
2019-05-16T06:44:51.516Z,19616.00
2019-05-16T06:45:51.745Z,20128.00
2019-05-16T06:47:08.675Z,20224.00
2019-05-16T06:47:52.509Z,19360.00
2019-05-16T06:48:51.472Z,18176.00
2019-05-16T06:49:51.462Z,16932.00
2019-05-16T06:50:52.017Z,16240.00
2019-05-16T06:51:51.707Z,16128.00
2019-05-16T06:52:51.472Z,16332.00
2019-05-16T06:53:51.430Z,17056.00
2019-05-16T06:54:53.809Z,17984.00
2019-05-16T06:55:51.398Z,18048.00
2019-05-16T06:56:51.386Z,17504.00
2019-05-16T06:57:51.378Z,17696.00
2019-05-16T06:58:52.122Z,18304.00
2019-05-16T06:59:51.359Z,18368.00
2019-05-16T07:00:52.599Z,17632.00
2019-05-16T07:01:51.339Z,16720.00
2019-05-16T07:02:51.328Z,16212.00
2019-05-16T07:03:51.347Z,16172.00
2019-05-16T07:04:51.303Z,16692.00
2019-05-16T07:05:51.317Z,18176.00
2019-05-16T07:06:58.559Z,19616.00
2019-05-16T07:07:52.279Z,20000.00
2019-05-16T07:08:51.297Z,20576.00
2019-05-16T07:10:00.115Z,22688.00
2019-05-16T07:10:52.244Z,25312.00
2019-05-16T07:11:51.244Z,28480.00
2019-05-16T07:12:51.216Z,32064.00
2019-05-16T07:13:52.023Z,34336.00
2019-05-16T07:14:51.256Z,33664.00
2019-05-16T07:15:51.187Z,31776.00
2019-05-16T07:16:51.178Z,29504.00
2019-05-16T07:17:51.215Z,27872.00
2019-05-16T07:18:51.182Z,26240.00
2019-05-16T07:19:51.144Z,25280.00
2019-05-16T07:20:51.513Z,24416.00
2019-05-16T07:21:51.122Z,22944.00
2019-05-16T07:22:51.116Z,21792.00
2019-05-16T07:23:51.399Z,21632.00
2019-05-16T07:24:51.091Z,22656.00
2019-05-16T07:25:51.084Z,24608.00
2019-05-16T07:26:51.097Z,26304.00
2019-05-16T07:27:51.324Z,27200.00
2019-05-16T07:28:51.729Z,27072.00
2019-05-16T07:29:51.040Z,26752.00
2019-05-16T07:30:51.030Z,27008.00
2019-05-16T07:31:52.462Z,28064.00
2019-05-16T07:32:51.001Z,28000.00
2019-05-16T07:33:51.037Z,26848.00
2019-05-16T07:34:51.001Z,25440.00
2019-05-16T07:35:51.590Z,24416.00
2019-05-16T07:36:51.002Z,23808.00
2019-05-16T07:37:50.956Z,23200.00
2019-05-16T07:38:50.946Z,22656.00
2019-05-16T07:39:51.287Z,22336.00
2019-05-16T07:40:51.481Z,22112.00
2019-05-16T07:41:51.015Z,22464.00
2019-05-16T07:42:51.169Z,23648.00
2019-05-16T07:43:50.887Z,25536.00
2019-05-16T07:44:50.905Z,27712.00
2019-05-16T07:45:51.573Z,30496.00
2019-05-16T07:46:51.719Z,33888.00
2019-05-16T07:47:51.197Z,35296.00
2019-05-16T07:48:51.934Z,36800.00
2019-05-16T07:49:50.851Z,36960.00
2019-05-16T07:50:50.817Z,34592.00
2019-05-16T07:51:50.806Z,33536.00
2019-05-16T07:52:51.287Z,33440.00
2019-05-16T07:53:50.783Z,32128.00
2019-05-16T07:54:50.961Z,31584.00
2019-05-16T07:55:51.217Z,31456.00
2019-05-16T07:56:59.255Z,31552.00
2019-05-16T07:57:51.738Z,32032.00
2019-05-16T07:58:50.956Z,32672.00
2019-05-16T07:59:50.849Z,33216.00
2019-05-16T08:01:02.001Z,33696.00
2019-05-16T08:01:54.155Z,35296.00
2019-05-16T08:02:50.756Z,37568.00
2019-05-16T08:03:51.153Z,36320.00
2019-05-16T08:04:50.708Z,36896.00
2019-05-16T08:05:51.610Z,36512.00
2019-05-16T08:06:50.643Z,35648.00
2019-05-16T08:07:51.401Z,35328.00
2019-05-16T08:08:51.259Z,35392.00
2019-05-16T08:09:50.747Z,35552.00
2019-05-16T08:10:51.251Z,36096.00
2019-05-16T08:11:50.593Z,36352.00
2019-05-16T08:12:51.450Z,36640.00
2019-05-16T08:13:50.862Z,37792.00
2019-05-16T08:14:50.581Z,38848.00
2019-05-16T08:15:51.034Z,39808.00
2019-05-16T08:16:50.541Z,36448.00
2019-05-16T08:17:51.204Z,35264.00
2019-05-16T08:18:50.871Z,34048.00
2019-05-16T08:19:50.975Z,31808.00
2019-05-16T08:20:52.485Z,29248.00
2019-05-16T08:21:50.776Z,27328.00
2019-05-16T08:22:50.895Z,25824.00
2019-05-16T08:23:50.694Z,24672.00
2019-05-16T08:24:50.663Z,23552.00
2019-05-16T08:25:50.843Z,22976.00
2019-05-16T08:27:52.188Z,23040.00
2019-05-16T08:28:50.725Z,23072.00
2019-05-16T08:29:51.406Z,23392.00
2019-05-16T08:31:52.846Z,24544.00
2019-05-16T08:32:52.867Z,24992.00
2019-05-16T08:33:53.707Z,25312.00
2019-05-16T08:34:51.518Z,25376.00
2019-05-16T08:35:51.608Z,25120.00
2019-05-16T08:37:51.672Z,27488.00
2019-05-16T08:38:51.586Z,28864.00
2019-05-16T08:39:50.935Z,29344.00
2019-05-16T08:41:05.988Z,29856.00
2019-05-16T08:42:52.044Z,28608.00
2019-05-16T08:43:53.374Z,27488.00
2019-05-16T08:44:51.615Z,27968.00
2019-05-16T08:45:51.508Z,29600.00
2019-05-16T08:46:57.109Z,31616.00
2019-05-16T08:47:52.485Z,31616.00
2019-05-16T08:48:53.836Z,31744.00
2019-05-16T08:49:52.186Z,30944.00
2019-05-16T08:50:05.379Z,25664.00
2019-05-16T08:50:09.653Z,29696.00
2019-05-16T08:50:54.455Z,30560.00
2019-05-16T08:51:52.915Z,30176.00
2019-05-16T08:52:52.880Z,29536.00
2019-05-16T08:53:50.584Z,28512.00
2019-05-16T08:54:51.123Z,26528.00
2019-05-16T08:55:50.700Z,25376.00
2019-05-16T08:57:52.944Z,26720.00
2019-05-16T08:58:53.806Z,27904.00
2019-05-16T08:59:52.341Z,28352.00
2019-05-16T09:01:57.541Z,29344.00
2019-05-16T09:02:52.398Z,29280.00
2019-05-16T09:03:52.113Z,28896.00
2019-05-16T09:04:53.480Z,28864.00
2019-05-16T09:05:53.244Z,29600.00
2019-05-16T09:06:52.630Z,29376.00
2019-05-16T09:07:50.002Z,27008.00
2019-05-16T09:08:49.997Z,24320.00
2019-05-16T09:10:10.718Z,24096.00
2019-05-16T09:10:34.907Z,22976.00
2019-05-16T09:10:34.908Z,28672.00
2019-05-16T09:10:35.081Z,22528.00
2019-05-16T09:11:00.823Z,21536.00
2019-05-16T09:11:50.967Z,21024.00
2019-05-16T09:12:49.951Z,19840.00
2019-05-16T09:13:49.950Z,19616.00
2019-05-16T09:14:49.934Z,20832.00
2019-05-16T09:15:49.978Z,22816.00
2019-05-16T09:16:49.919Z,24864.00
2019-05-16T09:17:49.898Z,26944.00
2019-05-16T09:18:38.343Z,25568.00
2019-05-16T09:18:50.967Z,28640.00
2019-05-16T09:19:49.882Z,29664.00
2019-05-16T09:20:50.595Z,30432.00
2019-05-16T09:21:49.887Z,31584.00
2019-05-16T09:22:49.848Z,33600.00
2019-05-16T09:23:49.841Z,35552.00
2019-05-16T09:24:49.825Z,34208.00
2019-05-16T09:25:49.878Z,30688.00
2019-05-16T09:26:49.827Z,27872.00
2019-05-16T09:27:49.791Z,27424.00
2019-05-16T09:28:49.785Z,27264.00
2019-05-16T09:29:49.771Z,26656.00
2019-05-16T09:30:49.766Z,26912.00
2019-05-16T09:32:07.878Z,27456.00
2019-05-16T09:32:50.753Z,28736.00
2019-05-16T09:33:49.736Z,29856.00
2019-05-16T09:34:49.753Z,28448.00
2019-05-16T09:35:49.726Z,26048.00
2019-05-16T09:36:49.732Z,22624.00
2019-05-16T09:37:49.704Z,20032.00
2019-05-16T09:38:49.680Z,18720.00
2019-05-16T09:39:49.670Z,17632.00
2019-05-16T09:40:49.659Z,17504.00
2019-05-16T09:41:54.425Z,17760.00
2019-05-16T09:42:50.638Z,16688.00
2019-05-16T09:43:49.629Z,16640.00
2019-05-16T09:44:49.618Z,16864.00
2019-05-16T09:45:49.606Z,16120.00
2019-05-16T09:46:49.621Z,15932.00
2019-05-16T09:47:49.583Z,17248.00
2019-05-16T09:48:49.572Z,19456.00
2019-05-16T09:49:49.563Z,21760.00
2019-05-16T09:50:49.557Z,23136.00
2019-05-16T09:51:49.573Z,23712.00
2019-05-16T09:52:49.530Z,25536.00
2019-05-16T09:53:49.519Z,29024.00
2019-05-16T09:54:49.509Z,32832.00
2019-05-16T09:55:49.502Z,35104.00
2019-05-16T09:56:49.518Z,36864.00
2019-05-16T09:57:49.489Z,37568.00
2019-05-16T09:58:49.467Z,34944.00
2019-05-16T09:59:49.445Z,31232.00
2019-05-16T10:00:49.451Z,30752.00
2019-05-16T10:01:49.465Z,35008.00
2019-05-16T10:02:49.427Z,38688.00
2019-05-16T10:03:49.415Z,37536.00
2019-05-16T10:04:49.404Z,38272.00
2019-05-16T10:05:49.397Z,38432.00
2019-05-16T10:06:49.425Z,35360.00
2019-05-16T10:07:49.382Z,31040.00
2019-05-16T10:08:49.364Z,29216.00
2019-05-16T10:09:50.288Z,27904.00
2019-05-16T10:10:49.341Z,26784.00
2019-05-16T10:12:05.264Z,27232.00
2019-05-16T10:12:50.319Z,27776.00
2019-05-16T10:13:49.361Z,25792.00
2019-05-16T10:14:49.311Z,22816.00
2019-05-16T10:15:49.284Z,20640.00
2019-05-16T10:16:49.278Z,19936.00
2019-05-16T10:17:49.298Z,20352.00
2019-05-16T10:18:49.256Z,21024.00
2019-05-16T10:19:49.240Z,21280.00
2019-05-16T10:20:49.237Z,22272.00
2019-05-16T10:21:49.219Z,25120.00
2019-05-16T10:22:50.581Z,27520.00
2019-05-16T10:23:49.199Z,27648.00
2019-05-16T10:24:49.199Z,27744.00
2019-05-16T10:25:49.180Z,28928.00
2019-05-16T10:26:53.768Z,29504.00
2019-05-16T10:27:49.194Z,29248.00
2019-05-16T10:28:49.147Z,29728.00
2019-05-16T10:29:49.154Z,30016.00
2019-05-16T10:30:50.110Z,29312.00
2019-05-16T10:31:53.150Z,28352.00
2019-05-16T10:32:49.132Z,26784.00
2019-05-16T10:33:49.101Z,24704.00
2019-05-16T10:34:49.086Z,23456.00
2019-05-16T10:35:49.081Z,22848.00
2019-05-16T10:36:49.069Z,22112.00
2019-05-16T10:37:49.085Z,22208.00
2019-05-16T10:38:49.044Z,22944.00
2019-05-16T10:39:49.037Z,23776.00
2019-05-16T10:40:49.028Z,24352.00
2019-05-16T10:41:49.011Z,24896.00
2019-05-16T10:42:49.026Z,25504.00
2019-05-16T10:43:48.986Z,25184.00
2019-05-16T10:44:48.986Z,22816.00
2019-05-16T10:45:48.971Z,21152.00
2019-05-16T10:46:49.007Z,21568.00
2019-05-16T10:47:48.974Z,22144.00
2019-05-16T10:48:48.947Z,24000.00
2019-05-16T10:49:48.931Z,26816.00
2019-05-16T10:50:48.943Z,28928.00
2019-05-16T10:51:48.997Z,27744.00
2019-05-16T10:53:07.041Z,25568.00
2019-05-16T10:54:05.701Z,24832.00
2019-05-16T10:54:57.995Z,24608.00
2019-05-16T10:55:49.861Z,24736.00
2019-05-16T10:56:48.889Z,24992.00
2019-05-16T10:57:48.988Z,25536.00
2019-05-16T10:59:14.658Z,27008.00
2019-05-16T11:00:06.576Z,28640.00
2019-05-16T11:01:10.951Z,27808.00
2019-05-16T11:01:49.798Z,25664.00
2019-05-16T11:02:48.904Z,24992.00
2019-05-16T11:03:49.343Z,25664.00
2019-05-16T11:05:00.149Z,26912.00
2019-05-16T11:06:02.953Z,29472.00
2019-05-16T11:06:49.759Z,32224.00
2019-05-16T11:07:52.937Z,33696.00
2019-05-16T11:08:48.724Z,33376.00
2019-05-16T11:09:58.531Z,32960.00
2019-05-16T11:10:49.737Z,33920.00
2019-05-16T11:11:48.692Z,34912.00
2019-05-16T11:12:54.913Z,33664.00
2019-05-16T11:13:51.216Z,31168.00
2019-05-16T11:14:48.663Z,29696.00
2019-05-16T11:15:48.663Z,28896.00
2019-05-16T11:16:48.656Z,27616.00
2019-05-16T11:17:48.632Z,26336.00
2019-05-16T11:18:48.647Z,26016.00
2019-05-16T11:19:48.614Z,26336.00
2019-05-16T11:20:49.361Z,26528.00
2019-05-16T11:21:48.584Z,26432.00
2019-05-16T11:22:48.582Z,25824.00
2019-05-16T11:23:48.590Z,25696.00
2019-05-16T11:24:48.558Z,26560.00
2019-05-16T11:25:48.543Z,29056.00
2019-05-16T11:26:48.556Z,31008.00
2019-05-16T11:27:48.519Z,30560.00
2019-05-16T11:28:49.328Z,30400.00
2019-05-16T11:29:48.498Z,30752.00
2019-05-16T11:30:49.903Z,30336.00
2019-05-16T11:31:48.475Z,30176.00
2019-05-16T11:32:48.471Z,31360.00
2019-05-16T11:33:48.484Z,33184.00
2019-05-16T11:34:48.446Z,35008.00
2019-05-16T11:35:48.434Z,36512.00
2019-05-16T11:36:48.427Z,36192.00
2019-05-16T11:37:48.413Z,32928.00
2019-05-16T11:38:48.426Z,28512.00
2019-05-16T11:39:48.399Z,25216.00
2019-05-16T11:40:48.387Z,24224.00
2019-05-16T11:41:48.370Z,24640.00
2019-05-16T11:43:05.113Z,24800.00
2019-05-16T11:43:49.377Z,23936.00
2019-05-16T11:44:48.338Z,22880.00
2019-05-16T11:45:48.331Z,22304.00
2019-05-16T11:46:49.151Z,21504.00
2019-05-16T11:47:48.307Z,20640.00
2019-05-16T11:48:49.160Z,20128.00
2019-05-16T11:49:48.287Z,20000.00
2019-05-16T11:50:48.314Z,20192.00
2019-05-16T11:51:48.309Z,20832.00
2019-05-16T11:52:48.255Z,21248.00
2019-05-16T11:53:48.276Z,21312.00
2019-05-16T11:54:48.252Z,21568.00
2019-05-16T11:55:55.598Z,22016.00
2019-05-16T11:56:49.337Z,22624.00
2019-05-16T11:57:48.203Z,23648.00
2019-05-16T11:58:48.219Z,24192.00
2019-05-16T11:59:48.179Z,24320.00
2019-05-16T12:00:48.645Z,25248.00
2019-05-16T12:01:48.149Z,26816.00
2019-05-16T12:02:48.148Z,28064.00
2019-05-16T12:03:48.187Z,28384.00
2019-05-16T12:04:48.132Z,27424.00
2019-05-16T12:05:48.629Z,26176.00
2019-05-16T12:06:48.102Z,25248.00
2019-05-16T12:07:48.819Z,24128.00
2019-05-16T12:08:48.083Z,23008.00
2019-05-16T12:09:55.081Z,23296.00
2019-05-16T12:10:49.067Z,25664.00
2019-05-16T12:11:48.052Z,28640.00
2019-05-16T12:12:48.041Z,32000.00
2019-05-16T12:13:48.030Z,33472.00
2019-05-16T12:14:48.056Z,30912.00